sensor_id;sensor_type;location;lat;lon;timestamp;pressure;altitude;pressure_sealevel;temperature;humidity
19447;BME280;9862;49.462;11.054;2023-02-28T00:00:35;98943.25;;;2.95;97.57
19447;BME280;9862;49.462;11.054;2023-02-28T00:03:02;98946.19;;;2.92;98.83
19447;BME280;9862;49.462;11.054;2023-02-28T00:05:30;98932.34;;;2.90;97.38
19447;BME280;9862;49.462;11.054;2023-02-28T00:07:56;98935.34;;;2.75;99.44
19447;BME280;9862;49.462;11.054;2023-02-28T00:10:26;98939.94;;;2.73;98.11
19447;BME280;9862;49.462;11.054;2023-02-28T00:12:55;98943.34;;;2.54;100.00
19447;BME280;9862;49.462;11.054;2023-02-28T00:15:23;98939.31;;;2.50;100.00
19447;BME280;9862;49.462;11.054;2023-02-28T00:17:49;98935.06;;;2.59;100.00
19447;BME280;9862;49.462;11.054;2023-02-28T00:20:16;98945.81;;;2.46;100.00
19447;BME280;9862;49.462;11.054;2023-02-28T00:22:45;98941.13;;;2.50;100.00
19447;BME280;9862;49.462;11.054;2023-02-28T00:25:14;98945.13;;;2.44;100.00
19447;BME280;9862;49.462;11.054;2023-02-28T00:27:43;98934.84;;;2.32;100.00
19447;BME280;9862;49.462;11.054;2023-02-28T00:30:11;98929.19;;;2.26;100.00
19447;BME280;9862;49.462;11.054;2023-02-28T00:32:38;98939.72;;;2.36;100.00
19447;BME280;9862;49.462;11.054;2023-02-28T00:35:06;98937.28;;;2.54;100.00
19447;BME280;9862;49.462;11.054;2023-02-28T00:37:34;98930.50;;;2.51;100.00
19447;BME280;9862;49.462;11.054;2023-02-28T00:40:00;98943.03;;;2.38;100.00
19447;BME280;9862;49.462;11.054;2023-02-28T00:42:29;98939.72;;;2.36;100.00
19447;BME280;9862;49.462;11.054;2023-02-28T00:44:57;98937.19;;;2.25;100.00
19447;BME280;9862;49.462;11.054;2023-02-28T00:47:25;98936.63;;;2.31;100.00
19447;BME280;9862;49.462;11.054;2023-02-28T00:49:52;98940.69;;;2.35;100.00
19447;BME280;9862;49.462;11.054;2023-02-28T00:52:18;98946.06;;;2.34;100.00
19447;BME280;9862;49.462;11.054;2023-02-28T00:54:45;98933.06;;;2.32;100.00
19447;BME280;9862;49.462;11.054;2023-02-28T00:57:11;98930.53;;;2.21;100.00
19447;BME280;9862;49.462;11.054;2023-02-28T00:59:38;98927.66;;;2.24;100.00
19447;BME280;9862;49.462;11.054;2023-02-28T01:02:06;98924.19;;;2.23;100.00
19447;BME280;9862;49.462;11.054;2023-02-28T01:04:32;98928.34;;;2.26;100.00
19447;BME280;9862;49.462;11.054;2023-02-28T01:06:59;98928.72;;;2.21;100.00
19447;BME280;9862;49.462;11.054;2023-02-28T01:09:25;98920.16;;;2.19;100.00
19447;BME280;9862;49.462;11.054;2023-02-28T01:11:52;98920.88;;;2.31;100.00
19447;BME280;9862;49.462;11.054;2023-02-28T01:14:18;98915.34;;;2.24;100.00
19447;BME280;9862;49.462;11.054;2023-02-28T01:16:45;98917.13;;;2.14;100.00
19447;BME280;9862;49.462;11.054;2023-02-28T01:19:13;98917.25;;;2.13;100.00
19447;BME280;9862;49.462;11.054;2023-02-28T01:21:39;98918.09;;;2.13;100.00
19447;BME280;9862;49.462;11.054;2023-02-28T01:24:06;98919.88;;;2.13;100.00
19447;BME280;9862;49.462;11.054;2023-02-28T01:26:33;98917.22;;;2.03;100.00
19447;BME280;9862;49.462;11.054;2023-02-28T01:29:00;98920.31;;;2.18;100.00
19447;BME280;9862;49.462;11.054;2023-02-28T01:31:26;98912.84;;;2.13;100.00
19447;BME280;9862;49.462;11.054;2023-02-28T01:33:53;98913.78;;;2.12;100.00
19447;BME280;9862;49.462;11.054;2023-02-28T01:36:22;98908.66;;;2.11;100.00
19447;BME280;9862;49.462;11.054;2023-02-28T01:38:50;98912.22;;;2.00;100.00
19447;BME280;9862;49.462;11.054;2023-02-28T01:41:18;98906.41;;;1.96;100.00
19447;BME280;9862;49.462;11.054;2023-02-28T01:44:00;98906.09;;;1.90;100.00
19447;BME280;9862;49.462;11.054;2023-02-28T01:46:30;98902.78;;;1.88;100.00
19447;BME280;9862;49.462;11.054;2023-02-28T01:49:02;98900.59;;;1.93;100.00
19447;BME280;9862;49.462;11.054;2023-02-28T01:51:35;98900.03;;;1.89;100.00
19447;BME280;9862;49.462;11.054;2023-02-28T01:54:06;98901.56;;;1.92;100.00
19447;BME280;9862;49.462;11.054;2023-02-28T01:56:43;98908.19;;;1.86;100.00
19447;BME280;9862;49.462;11.054;2023-02-28T01:59:12;98902.28;;;1.94;100.00
19447;BME280;9862;49.462;11.054;2023-02-28T02:01:41;98901.69;;;1.90;100.00
19447;BME280;9862;49.462;11.054;2023-02-28T02:04:07;98898.66;;;1.85;100.00
19447;BME280;9862;49.462;11.054;2023-02-28T02:06:37;98902.22;;;1.84;100.00
19447;BME280;9862;49.462;11.054;2023-02-28T02:09:04;98895.19;;;1.85;100.00
19447;BME280;9862;49.462;11.054;2023-02-28T02:11:31;98892.31;;;1.97;100.00
19447;BME280;9862;49.462;11.054;2023-02-28T02:14:12;98897.03;;;1.94;100.00
19447;BME280;9862;49.462;11.054;2023-02-28T02:16:55;98891.22;;;2.00;100.00
19447;BME280;9862;49.462;11.054;2023-02-28T02:19:46;98894.16;;;2.07;100.00
19447;BME280;9862;49.462;11.054;2023-02-28T02:22:36;98897.84;;;1.94;100.00
19447;BME280;9862;49.462;11.054;2023-02-28T02:25:14;98887.31;;;1.85;100.00
19447;BME280;9862;49.462;11.054;2023-02-28T02:27:59;98881.53;;;1.91;100.00
19447;BME280;9862;49.462;11.054;2023-02-28T02:30:46;98875.44;;;1.90;100.00
19447;BME280;9862;49.462;11.054;2023-02-28T02:33:45;98873.22;;;1.86;100.00
19447;BME280;9862;49.462;11.054;2023-02-28T02:36:22;98882.50;;;1.90;100.00
19447;BME280;9862;49.462;11.054;2023-02-28T02:38:53;98872.44;;;1.95;100.00
19447;BME280;9862;49.462;11.054;2023-02-28T02:41:27;98880.44;;;1.93;100.00
19447;BME280;9862;49.462;11.054;2023-02-28T02:44:02;98881.25;;;1.84;100.00
19447;BME280;9862;49.462;11.054;2023-02-28T02:46:34;98880.66;;;1.81;100.00
19447;BME280;9862;49.462;11.054;2023-02-28T02:49:09;98874.44;;;1.82;100.00
19447;BME280;9862;49.462;11.054;2023-02-28T02:51:40;98881.38;;;1.92;100.00
19447;BME280;9862;49.462;11.054;2023-02-28T02:54:10;98881.28;;;1.94;100.00
19447;BME280;9862;49.462;11.054;2023-02-28T02:56:42;98888.69;;;1.89;100.00
19447;BME280;9862;49.462;11.054;2023-02-28T02:59:12;98892.19;;;1.99;100.00
19447;BME280;9862;49.462;11.054;2023-02-28T03:01:41;98881.38;;;1.92;100.00
19447;BME280;9862;49.462;11.054;2023-02-28T03:04:09;98880.81;;;1.89;100.00
19447;BME280;9862;49.462;11.054;2023-02-28T03:06:39;98881.53;;;1.91;100.00
19447;BME280;9862;49.462;11.054;2023-02-28T03:09:06;98885.13;;;1.90;100.00
19447;BME280;9862;49.462;11.054;2023-02-28T03:11:35;98887.56;;;1.82;100.00
19447;BME280;9862;49.462;11.054;2023-02-28T03:14:15;98880.06;;;1.67;100.00
19447;BME280;9862;49.462;11.054;2023-02-28T03:19:49;98881.03;;;1.66;100.00
19447;BME280;9862;49.462;11.054;2023-02-28T03:22:31;98875.22;;;1.72;100.00
19447;BME280;9862;49.462;11.054;2023-02-28T03:25:05;98887.41;;;1.83;100.00
19447;BME280;9862;49.462;11.054;2023-02-28T03:27:39;98886.78;;;1.91;100.00
19447;BME280;9862;49.462;11.054;2023-02-28T03:30:10;98885.91;;;1.81;100.00
19447;BME280;9862;49.462;11.054;2023-02-28T03:32:40;98882.84;;;1.76;100.00
19447;BME280;9862;49.462;11.054;2023-02-28T03:35:14;98879.28;;;1.77;100.00
19447;BME280;9862;49.462;11.054;2023-02-28T03:37:50;98886.88;;;1.80;100.00
19447;BME280;9862;49.462;11.054;2023-02-28T03:40:21;98885.44;;;1.66;100.00
19447;BME280;9862;49.462;11.054;2023-02-28T03:42:53;98886.44;;;1.75;100.00
19447;BME280;9862;49.462;11.054;2023-02-28T03:45:24;98889.72;;;1.67;100.00
19447;BME280;9862;49.462;11.054;2023-02-28T03:47:55;98889.06;;;1.75;100.00
19447;BME280;9862;49.462;11.054;2023-02-28T03:50:27;98882.13;;;1.73;100.00
19447;BME280;9862;49.462;11.054;2023-02-28T03:53:01;98893.88;;;1.69;100.00
19447;BME280;9862;49.462;11.054;2023-02-28T03:55:39;98888.31;;;1.63;100.00
19447;BME280;9862;49.462;11.054;2023-02-28T03:58:14;98887.53;;;1.72;100.00
19447;BME280;9862;49.462;11.054;2023-02-28T04:00:46;98885.91;;;1.81;100.00
19447;BME280;9862;49.462;11.054;2023-02-28T04:03:14;98893.53;;;1.84;100.00
19447;BME280;9862;49.462;11.054;2023-02-28T04:05:47;98889.94;;;1.85;100.00
19447;BME280;9862;49.462;11.054;2023-02-28T04:08:17;98904.97;;;1.83;100.00
19447;BME280;9862;49.462;11.054;2023-02-28T04:10:45;98898.38;;;1.88;100.00
19447;BME280;9862;49.462;11.054;2023-02-28T04:13:14;98895.34;;;1.93;100.00
19447;BME280;9862;49.462;11.054;2023-02-28T04:15:40;98901.03;;;1.98;100.00
19447;BME280;9862;49.462;11.054;2023-02-28T04:18:07;98894.97;;;2.07;100.00
19447;BME280;9862;49.462;11.054;2023-02-28T04:20:34;98898.75;;;2.14;100.00
19447;BME280;9862;49.462;11.054;2023-02-28T04:23:00;98900.41;;;2.15;100.00
19447;BME280;9862;49.462;11.054;2023-02-28T04:25:28;98896.91;;;2.05;100.00
19447;BME280;9862;49.462;11.054;2023-02-28T04:27:54;98897.72;;;1.96;100.00
19447;BME280;9862;49.462;11.054;2023-02-28T04:30:21;98897.13;;;1.92;100.00
19447;BME280;9862;49.462;11.054;2023-02-28T04:32:47;98898.22;;;1.90;100.00
19447;BME280;9862;49.462;11.054;2023-02-28T04:35:14;98888.88;;;1.97;100.00
19447;BME280;9862;49.462;11.054;2023-02-28T04:37:41;98895.09;;;1.96;100.00
19447;BME280;9862;49.462;11.054;2023-02-28T04:40:08;98902.50;;;1.91;100.00
19447;BME280;9862;49.462;11.054;2023-02-28T04:42:36;98896.44;;;1.90;100.00
19447;BME280;9862;49.462;11.054;2023-02-28T04:45:03;98898.50;;;1.87;100.00
19447;BME280;9862;49.462;11.054;2023-02-28T04:47:30;98892.59;;;1.94;100.00
19447;BME280;9862;49.462;11.054;2023-02-28T04:49:57;98896.88;;;1.95;100.00
19447;BME280;9862;49.462;11.054;2023-02-28T04:52:23;98894.41;;;1.94;100.00
19447;BME280;9862;49.462;11.054;2023-02-28T04:54:50;98893.28;;;1.96;100.00
19447;BME280;9862;49.462;11.054;2023-02-28T04:57:16;98892.28;;;1.88;100.00
19447;BME280;9862;49.462;11.054;2023-02-28T04:59:44;98890.63;;;1.87;100.00
19447;BME280;9862;49.462;11.054;2023-02-28T05:02:11;98894.50;;;1.92;100.00
19447;BME280;9862;49.462;11.054;2023-02-28T05:04:37;98898.22;;;1.90;100.00
19447;BME280;9862;49.462;11.054;2023-02-28T05:07:04;98897.03;;;1.94;100.00
19447;BME280;9862;49.462;11.054;2023-02-28T05:09:30;98906.66;;;1.84;100.00
19447;BME280;9862;49.462;11.054;2023-02-28T05:11:58;98905.94;;;1.82;100.00
19447;BME280;9862;49.462;11.054;2023-02-28T05:14:24;98902.19;;;1.75;100.00
19447;BME280;9862;49.462;11.054;2023-02-28T05:16:52;98904.69;;;1.76;100.00
19447;BME280;9862;49.462;11.054;2023-02-28T05:19:19;98904.59;;;1.87;100.00
19447;BME280;9862;49.462;11.054;2023-02-28T05:21:51;98903.81;;;2.06;100.00
19447;BME280;9862;49.462;11.054;2023-02-28T05:24:18;98910.22;;;2.13;100.00
19447;BME280;9862;49.462;11.054;2023-02-28T05:26:48;98905.03;;;2.02;100.00
19447;BME280;9862;49.462;11.054;2023-02-28T05:29:15;98908.34;;;1.94;100.00
19447;BME280;9862;49.462;11.054;2023-02-28T05:31:41;98911.94;;;1.93;100.00
19447;BME280;9862;49.462;11.054;2023-02-28T05:34:09;98910.03;;;2.05;100.00
19447;BME280;9862;49.462;11.054;2023-02-28T05:36:37;98906.97;;;2.00;100.00
19447;BME280;9862;49.462;11.054;2023-02-28T05:39:05;98915.50;;;1.92;100.00
19447;BME280;9862;49.462;11.054;2023-02-28T05:41:32;98913.47;;;1.96;100.00
19447;BME280;9862;49.462;11.054;2023-02-28T05:43:59;98917.84;;;1.86;100.00
19447;BME280;9862;49.462;11.054;2023-02-28T05:46:25;98916.06;;;1.86;100.00
19447;BME280;9862;49.462;11.054;2023-02-28T05:48:52;98914.16;;;1.98;100.00
19447;BME280;9862;49.462;11.054;2023-02-28T05:51:20;98921.34;;;1.96;100.00
19447;BME280;9862;49.462;11.054;2023-02-28T05:53:46;98920.09;;;2.00;100.00
19447;BME280;9862;49.462;11.054;2023-02-28T05:56:13;98916.25;;;2.04;100.00
19447;BME280;9862;49.462;11.054;2023-02-28T05:58:40;98919.41;;;1.98;100.00
19447;BME280;9862;49.462;11.054;2023-02-28T06:01:21;98926.03;;;2.02;100.00
19447;BME280;9862;49.462;11.054;2023-02-28T06:03:48;98920.22;;;1.98;100.00
19447;BME280;9862;49.462;11.054;2023-02-28T06:06:15;98918.84;;;1.94;100.00
19447;BME280;9862;49.462;11.054;2023-02-28T06:08:42;98921.06;;;1.99;100.00
19447;BME280;9862;49.462;11.054;2023-02-28T06:11:09;98925.78;;;2.05;100.00
19447;BME280;9862;49.462;11.054;2023-02-28T06:13:36;98940.97;;;2.01;100.00
19447;BME280;9862;49.462;11.054;2023-02-28T06:16:03;98933.31;;;1.89;100.00
19447;BME280;9862;49.462;11.054;2023-02-28T06:18:30;98921.84;;;1.90;100.00
19447;BME280;9862;49.462;11.054;2023-02-28T06:20:57;98936.47;;;1.83;100.00
19447;BME280;9862;49.462;11.054;2023-02-28T06:23:23;98929.31;;;1.85;100.00
19447;BME280;9862;49.462;11.054;2023-02-28T06:25:51;98941.47;;;1.86;100.00
19447;BME280;9862;49.462;11.054;2023-02-28T06:28:18;98931.66;;;1.88;100.00
19447;BME280;9862;49.462;11.054;2023-02-28T06:30:45;98927.94;;;1.90;100.00
19447;BME280;9862;49.462;11.054;2023-02-28T06:33:11;98933.22;;;2.00;100.00
19447;BME280;9862;49.462;11.054;2023-02-28T06:35:38;98944.69;;;1.99;100.00
19447;BME280;9862;49.462;11.054;2023-02-28T06:38:04;98940.13;;;2.01;100.00
19447;BME280;9862;49.462;11.054;2023-02-28T06:40:31;98940.84;;;2.03;100.00
19447;BME280;9862;49.462;11.054;2023-02-28T06:43:01;98945.78;;;1.96;100.00
19447;BME280;9862;49.462;11.054;2023-02-28T06:45:28;98959.19;;;1.93;100.00
19447;BME280;9862;49.462;11.054;2023-02-28T06:47:55;98949.75;;;1.91;100.00
19447;BME280;9862;49.462;11.054;2023-02-28T06:50:21;98951.09;;;2.06;100.00
19447;BME280;9862;49.462;11.054;2023-02-28T06:52:48;98949.66;;;2.02;100.00
19447;BME280;9862;49.462;11.054;2023-02-28T06:55:19;98949.53;;;1.94;100.00
19447;BME280;9862;49.462;11.054;2023-02-28T06:57:45;98956.66;;;1.92;100.00
19447;BME280;9862;49.462;11.054;2023-02-28T07:00:14;98947.75;;;2.04;100.00
19447;BME280;9862;49.462;11.054;2023-02-28T07:02:41;98953.72;;;2.06;100.00
19447;BME280;9862;49.462;11.054;2023-02-28T07:05:08;98949.31;;;2.16;100.00
19447;BME280;9862;49.462;11.054;2023-02-28T07:07:34;98956.50;;;2.14;100.00
19447;BME280;9862;49.462;11.054;2023-02-28T07:10:03;98957.38;;;2.24;100.00
19447;BME280;9862;49.462;11.054;2023-02-28T07:12:30;98962.44;;;2.16;100.00
19447;BME280;9862;49.462;11.054;2023-02-28T07:14:56;98971.16;;;2.17;100.00
19447;BME280;9862;49.462;11.054;2023-02-28T07:17:24;98970.66;;;2.23;100.00
19447;BME280;9862;49.462;11.054;2023-02-28T07:19:51;98961.25;;;2.30;100.00
19447;BME280;9862;49.462;11.054;2023-02-28T07:22:17;98970.75;;;2.21;100.00
19447;BME280;9862;49.462;11.054;2023-02-28T07:24:44;98964.66;;;2.21;100.00
19447;BME280;9862;49.462;11.054;2023-02-28T07:27:10;98967.59;;;2.27;100.00
19447;BME280;9862;49.462;11.054;2023-02-28T07:29:37;98970.91;;;2.29;100.00
19447;BME280;9862;49.462;11.054;2023-02-28T07:32:04;98974.00;;;2.35;100.00
19447;BME280;9862;49.462;11.054;2023-02-28T07:34:32;98965.97;;;2.36;100.00
19447;BME280;9862;49.462;11.054;2023-02-28T07:36:59;98972.22;;;2.45;100.00
19447;BME280;9862;49.462;11.054;2023-02-28T07:39:28;98969.03;;;2.51;100.00
19447;BME280;9862;49.462;11.054;2023-02-28T07:41:55;98966.69;;;2.48;100.00
19447;BME280;9862;49.462;11.054;2023-02-28T07:44:22;98969.47;;;2.56;100.00
19447;BME280;9862;49.462;11.054;2023-02-28T07:46:48;98970.19;;;2.68;100.00
19447;BME280;9862;49.462;11.054;2023-02-28T07:49:15;98968.25;;;2.60;100.00
19447;BME280;9862;49.462;11.054;2023-02-28T07:51:43;98968.09;;;2.52;100.00
19447;BME280;9862;49.462;11.054;2023-02-28T07:54:09;98969.91;;;2.51;100.00
19447;BME280;9862;49.462;11.054;2023-02-28T07:56:36;98977.91;;;2.50;100.00
19447;BME280;9862;49.462;11.054;2023-02-28T07:59:02;98971.44;;;2.64;100.00
19447;BME280;9862;49.462;11.054;2023-02-28T08:01:29;98966.34;;;2.72;100.00
19447;BME280;9862;49.462;11.054;2023-02-28T08:03:55;98964.28;;;2.85;100.00
19447;BME280;9862;49.462;11.054;2023-02-28T08:06:24;98965.03;;;3.92;100.00
19447;BME280;9862;49.462;11.054;2023-02-28T08:08:52;98965.91;;;5.10;100.00
19447;BME280;9862;49.462;11.054;2023-02-28T08:11:21;98955.88;;;6.70;100.00
19447;BME280;9862;49.462;11.054;2023-02-28T08:13:47;98944.03;;;7.31;94.90
19447;BME280;9862;49.462;11.054;2023-02-28T08:16:14;98943.22;;;7.46;90.95
19447;BME280;9862;49.462;11.054;2023-02-28T08:18:46;98943.38;;;7.61;75.15
19447;BME280;9862;49.462;11.054;2023-02-28T08:21:12;98938.06;;;6.88;69.49
19447;BME280;9862;49.462;11.054;2023-02-28T08:23:39;98954.53;;;5.97;73.69
19447;BME280;9862;49.462;11.054;2023-02-28T08:26:07;98958.72;;;5.38;83.04
19447;BME280;9862;49.462;11.054;2023-02-28T08:28:34;98963.50;;;4.99;84.44
19447;BME280;9862;49.462;11.054;2023-02-28T08:31:00;98964.34;;;4.54;88.87
19447;BME280;9862;49.462;11.054;2023-02-28T08:33:27;98964.16;;;4.38;91.99
19447;BME280;9862;49.462;11.054;2023-02-28T08:35:54;98963.66;;;4.25;94.40
19447;BME280;9862;49.462;11.054;2023-02-28T08:38:21;98962.38;;;4.29;93.28
19447;BME280;9862;49.462;11.054;2023-02-28T08:40:48;98954.00;;;4.16;93.16
19447;BME280;9862;49.462;11.054;2023-02-28T08:43:15;98965.31;;;3.89;93.86
19447;BME280;9862;49.462;11.054;2023-02-28T08:45:42;98958.28;;;3.70;95.88
19447;BME280;9862;49.462;11.054;2023-02-28T08:48:08;98971.88;;;3.56;97.32
19447;BME280;9862;49.462;11.054;2023-02-28T08:50:35;98970.50;;;3.52;100.00
19447;BME280;9862;49.462;11.054;2023-02-28T08:53:02;98973.56;;;3.47;100.00
19447;BME280;9862;49.462;11.054;2023-02-28T08:55:28;98976.16;;;3.57;100.00
19447;BME280;9862;49.462;11.054;2023-02-28T08:57:55;98978.69;;;3.58;100.00
19447;BME280;9862;49.462;11.054;2023-02-28T09:00:23;98965.22;;;3.61;99.29
19447;BME280;9862;49.462;11.054;2023-02-28T09:02:50;98956.63;;;3.79;99.68
19447;BME280;9862;49.462;11.054;2023-02-28T09:05:16;98970.88;;;3.76;97.78
19447;BME280;9862;49.462;11.054;2023-02-28T09:07:43;98957.69;;;3.86;96.51
19447;BME280;9862;49.462;11.054;2023-02-28T09:10:10;98972.56;;;3.77;96.49
19447;BME280;9862;49.462;11.054;2023-02-28T09:12:37;98966.56;;;3.75;97.71
19447;BME280;9862;49.462;11.054;2023-02-28T09:15:05;98963.50;;;3.89;96.33
19447;BME280;9862;49.462;11.054;2023-02-28T09:17:33;98966.69;;;3.83;95.95
19447;BME280;9862;49.462;11.054;2023-02-28T09:20:00;98969.66;;;3.70;96.25
19447;BME280;9862;49.462;11.054;2023-02-28T09:22:29;98961.63;;;3.62;95.96
19447;BME280;9862;49.462;11.054;2023-02-28T09:24:56;98964.78;;;3.76;96.17
19447;BME280;9862;49.462;11.054;2023-02-28T09:27:22;98967.56;;;3.74;96.99
19447;BME280;9862;49.462;11.054;2023-02-28T09:29:49;98962.94;;;3.86;97.20
19447;BME280;9862;49.462;11.054;2023-02-28T09:32:16;98956.28;;;3.91;94.13
19447;BME280;9862;49.462;11.054;2023-02-28T09:34:44;98946.81;;;4.08;92.19
19447;BME280;9862;49.462;11.054;2023-02-28T09:37:11;98964.56;;;4.06;93.64
19447;BME280;9862;49.462;11.054;2023-02-28T09:39:37;98965.59;;;4.23;93.53
19447;BME280;9862;49.462;11.054;2023-02-28T09:42:04;98959.59;;;4.30;91.78
19447;BME280;9862;49.462;11.054;2023-02-28T09:44:36;98959.19;;;4.35;91.29
19447;BME280;9862;49.462;11.054;2023-02-28T09:47:08;98961.09;;;4.33;91.42
19447;BME280;9862;49.462;11.054;2023-02-28T09:49:40;98961.88;;;4.43;87.04
19447;BME280;9862;49.462;11.054;2023-02-28T09:52:12;98972.63;;;4.32;89.43
19447;BME280;9862;49.462;11.054;2023-02-28T09:54:40;98969.41;;;4.38;90.63
19447;BME280;9862;49.462;11.054;2023-02-28T09:57:11;98968.50;;;4.57;88.18
19447;BME280;9862;49.462;11.054;2023-02-28T09:59:54;98959.91;;;4.55;85.00
19447;BME280;9862;49.462;11.054;2023-02-28T10:02:45;98965.22;;;4.45;86.43
19447;BME280;9862;49.462;11.054;2023-02-28T10:05:14;98972.25;;;4.54;85.75
19447;BME280;9862;49.462;11.054;2023-02-28T10:07:52;98968.19;;;4.60;84.18
19447;BME280;9862;49.462;11.054;2023-02-28T10:10:26;98961.72;;;4.54;82.55
19447;BME280;9862;49.462;11.054;2023-02-28T10:12:56;98958.78;;;4.57;83.57
19447;BME280;9862;49.462;11.054;2023-02-28T10:15:26;98972.09;;;4.56;84.20
19447;BME280;9862;49.462;11.054;2023-02-28T10:17:57;98967.75;;;4.65;81.36
19447;BME280;9862;49.462;11.054;2023-02-28T10:20:25;98959.63;;;4.76;79.79
19447;BME280;9862;49.462;11.054;2023-02-28T10:23:01;98956.03;;;4.77;79.56
19447;BME280;9862;49.462;11.054;2023-02-28T10:25:33;98958.34;;;4.80;79.04
19447;BME280;9862;49.462;11.054;2023-02-28T10:28:04;98963.41;;;4.91;79.40
19447;BME280;9862;49.462;11.054;2023-02-28T10:30:31;98950.94;;;4.93;77.91
19447;BME280;9862;49.462;11.054;2023-02-28T10:32:58;98956.50;;;5.08;77.28
19447;BME280;9862;49.462;11.054;2023-02-28T10:35:25;98954.53;;;5.10;78.63
19447;BME280;9862;49.462;11.054;2023-02-28T10:37:55;98948.50;;;5.17;79.39
19447;BME280;9862;49.462;11.054;2023-02-28T10:40:31;98955.19;;;5.30;77.01
19447;BME280;9862;49.462;11.054;2023-02-28T10:43:00;98954.28;;;5.39;73.42
19447;BME280;9862;49.462;11.054;2023-02-28T10:45:29;98941.47;;;5.44;73.92
19447;BME280;9862;49.462;11.054;2023-02-28T10:47:58;98933.88;;;5.41;71.77
19447;BME280;9862;49.462;11.054;2023-02-28T10:50:28;98940.50;;;5.27;72.33
19447;BME280;9862;49.462;11.054;2023-02-28T10:53:07;98946.00;;;5.34;73.78
19447;BME280;9862;49.462;11.054;2023-02-28T10:55:36;98950.13;;;5.36;71.50
19447;BME280;9862;49.462;11.054;2023-02-28T10:58:20;98944.47;;;5.49;72.75
19447;BME280;9862;49.462;11.054;2023-02-28T11:00:47;98944.69;;;5.56;70.85
19447;BME280;9862;49.462;11.054;2023-02-28T11:03:24;98946.75;;;5.44;69.40
19447;BME280;9862;49.462;11.054;2023-02-28T11:05:51;98939.81;;;5.43;72.21
19447;BME280;9862;49.462;11.054;2023-02-28T11:08:18;98948.09;;;5.48;70.28
19447;BME280;9862;49.462;11.054;2023-02-28T11:10:47;98944.47;;;5.49;68.33
19447;BME280;9862;49.462;11.054;2023-02-28T11:13:17;98942.72;;;5.40;67.65
19447;BME280;9862;49.462;11.054;2023-02-28T11:15:50;98933.16;;;5.39;69.70
19447;BME280;9862;49.462;11.054;2023-02-28T11:18:27;98942.91;;;5.38;69.68
19447;BME280;9862;49.462;11.054;2023-02-28T11:20:57;98941.25;;;5.37;70.09
19447;BME280;9862;49.462;11.054;2023-02-28T11:23:27;98954.72;;;5.52;68.79
19447;BME280;9862;49.462;11.054;2023-02-28T11:25:59;98944.34;;;5.59;67.79
19447;BME280;9862;49.462;11.054;2023-02-28T11:28:28;98944.53;;;5.57;67.95
19447;BME280;9862;49.462;11.054;2023-02-28T11:31:02;98933.13;;;5.57;68.47
19447;BME280;9862;49.462;11.054;2023-02-28T11:33:31;98937.66;;;5.64;68.59
19447;BME280;9862;49.462;11.054;2023-02-28T11:36:01;98938.03;;;5.69;69.03
19447;BME280;9862;49.462;11.054;2023-02-28T11:38:29;98945.31;;;5.75;69.11
19447;BME280;9862;49.462;11.054;2023-02-28T11:41:17;98928.97;;;5.72;67.95
19447;BME280;9862;49.462;11.054;2023-02-28T11:43:57;98933.69;;;5.68;68.49
19447;BME280;9862;49.462;11.054;2023-02-28T11:46:31;98932.09;;;5.75;68.06
19447;BME280;9862;49.462;11.054;2023-02-28T11:49:06;98931.94;;;5.77;68.43
19447;BME280;9862;49.462;11.054;2023-02-28T11:51:47;98918.91;;;6.01;67.25
19447;BME280;9862;49.462;11.054;2023-02-28T11:54:26;98931.13;;;6.02;66.62
19447;BME280;9862;49.462;11.054;2023-02-28T11:57:00;98928.13;;;5.97;66.88
19447;BME280;9862;49.462;11.054;2023-02-28T11:59:47;98923.66;;;5.98;66.81
19447;BME280;9862;49.462;11.054;2023-02-28T12:02:24;98919.03;;;5.92;66.83
19447;BME280;9862;49.462;11.054;2023-02-28T12:05:04;98924.31;;;5.92;67.82
19447;BME280;9862;49.462;11.054;2023-02-28T12:07:42;98920.91;;;6.08;67.51
19447;BME280;9862;49.462;11.054;2023-02-28T12:10:20;98925.03;;;6.02;67.19
19447;BME280;9862;49.462;11.054;2023-02-28T12:13:00;98925.34;;;5.99;68.33
19447;BME280;9862;49.462;11.054;2023-02-28T12:18:47;98915.38;;;6.27;65.60
19447;BME280;9862;49.462;11.054;2023-02-28T12:21:24;98914.59;;;6.35;65.12
19447;BME280;9862;49.462;11.054;2023-02-28T12:24:07;98918.50;;;6.22;65.03
19447;BME280;9862;49.462;11.054;2023-02-28T12:26:39;98909.63;;;6.31;63.67
19447;BME280;9862;49.462;11.054;2023-02-28T12:29:16;98907.97;;;6.30;63.58
19447;BME280;9862;49.462;11.054;2023-02-28T12:31:48;98909.78;;;6.30;64.77
19447;BME280;9862;49.462;11.054;2023-02-28T12:34:18;98913.44;;;6.29;65.57
19447;BME280;9862;49.462;11.054;2023-02-28T12:36:47;98896.94;;;6.43;64.63
19447;BME280;9862;49.462;11.054;2023-02-28T12:39:19;98903.22;;;6.42;62.02
19447;BME280;9862;49.462;11.054;2023-02-28T12:41:54;98902.72;;;6.39;64.13
19447;BME280;9862;49.462;11.054;2023-02-28T12:44:28;98913.47;;;6.37;64.08
19447;BME280;9862;49.462;11.054;2023-02-28T12:47:00;98905.19;;;6.40;64.09
19447;BME280;9862;49.462;11.054;2023-02-28T12:49:33;98892.19;;;6.47;63.91
19447;BME280;9862;49.462;11.054;2023-02-28T12:52:01;98889.38;;;6.48;63.74
19447;BME280;9862;49.462;11.054;2023-02-28T12:54:33;98882.44;;;6.47;62.30
19447;BME280;9862;49.462;11.054;2023-02-28T12:57:07;98890.19;;;6.49;62.76
19447;BME280;9862;49.462;11.054;2023-02-28T12:59:41;98900.09;;;6.47;63.91
19447;BME280;9862;49.462;11.054;2023-02-28T13:08:39;98903.44;;;6.57;62.17
19447;BME280;9862;49.462;11.054;2023-02-28T13:11:24;98900.97;;;6.72;63.34
19447;BME280;9862;49.462;11.054;2023-02-28T13:13:57;98891.56;;;6.69;62.88
19447;BME280;9862;49.462;11.054;2023-02-28T13:16:26;98891.88;;;6.74;63.63
19447;BME280;9862;49.462;11.054;2023-02-28T13:19:08;98885.75;;;6.74;63.87
19447;BME280;9862;49.462;11.054;2023-02-28T13:21:43;98884.13;;;6.81;63.43
19447;BME280;9862;49.462;11.054;2023-02-28T13:24:11;98890.91;;;6.92;62.96
19447;BME280;9862;49.462;11.054;2023-02-28T13:29:42;98896.56;;;7.05;62.61
19447;BME280;9862;49.462;11.054;2023-02-28T13:32:32;98885.66;;;7.24;60.79
19447;BME280;9862;49.462;11.054;2023-02-28T13:38:17;98883.66;;;7.26;59.73